createdAt,value
2017-08-11T00:00:50.954Z,7.10
2017-08-11T00:03:18.424Z,7.67
2017-08-11T00:05:45.857Z,8.50
2017-08-11T00:08:13.337Z,8.80
2017-08-11T00:10:40.794Z,8.07
2017-08-11T00:13:08.849Z,8.23
2017-08-11T00:15:36.321Z,8.37
2017-08-11T00:18:03.797Z,8.47
2017-08-11T00:20:31.232Z,9.03
2017-08-11T00:22:58.704Z,10.27
2017-08-11T00:25:26.343Z,9.63
2017-08-11T00:27:56.415Z,9.20
2017-08-11T00:30:23.939Z,9.50
2017-08-11T00:32:51.520Z,9.23
2017-08-11T00:35:19.066Z,8.80
2017-08-11T00:37:46.513Z,10.57
2017-08-11T00:40:13.983Z,10.13
2017-08-11T00:42:41.547Z,9.83
2017-08-11T00:45:09.038Z,9.40
2017-08-11T00:47:36.493Z,9.67
2017-08-11T00:50:03.972Z,10.03
2017-08-11T00:52:31.444Z,10.67
2017-08-11T00:54:58.995Z,10.93
2017-08-11T00:57:26.455Z,11.80
2017-08-11T00:59:53.934Z,13.07
2017-08-11T01:02:21.577Z,12.67
2017-08-11T01:04:49.051Z,13.27
2017-08-11T01:07:16.605Z,11.07
2017-08-11T01:09:44.076Z,11.87
2017-08-11T01:12:11.601Z,12.07
2017-08-11T01:14:39.189Z,12.90
2017-08-11T01:17:06.743Z,12.50
2017-08-11T01:19:34.194Z,11.10
2017-08-11T01:22:01.668Z,10.07
2017-08-11T01:24:29.114Z,9.87
2017-08-11T01:26:56.757Z,9.57
2017-08-11T01:29:24.431Z,13.93
2017-08-11T01:31:51.903Z,11.30
2017-08-11T01:34:19.445Z,11.03
2017-08-11T01:36:46.954Z,9.57
2017-08-11T01:39:14.410Z,8.50
2017-08-11T01:41:41.918Z,8.93
2017-08-11T01:44:09.362Z,12.90
2017-08-11T01:46:36.839Z,10.67
2017-08-11T01:49:04.377Z,10.90
2017-08-11T01:51:31.951Z,9.50
2017-08-11T01:53:59.489Z,8.77
2017-08-11T01:56:26.965Z,8.80
2017-08-11T01:58:54.440Z,9.27
2017-08-11T02:01:21.961Z,8.50
2017-08-11T02:03:49.537Z,8.60
2017-08-11T02:06:17.111Z,9.17
2017-08-11T02:08:44.565Z,8.50
2017-08-11T02:11:12.116Z,9.77
2017-08-11T02:13:39.676Z,10.73
2017-08-11T02:16:07.127Z,11.67
2017-08-11T02:18:34.891Z,12.07
2017-08-11T02:21:02.360Z,12.63
2017-08-11T02:23:29.889Z,11.60
2017-08-11T02:25:57.370Z,12.00
2017-08-11T02:28:24.851Z,11.80
2017-08-11T02:30:52.322Z,12.60
2017-08-11T02:33:19.936Z,12.17
2017-08-11T02:35:47.403Z,11.67
2017-08-11T02:38:14.934Z,11.43
2017-08-11T02:40:42.408Z,11.37
2017-08-11T02:43:09.917Z,10.67
2017-08-11T02:45:37.433Z,12.90
2017-08-11T02:48:04.889Z,11.07
2017-08-11T02:50:32.439Z,13.27
2017-08-11T02:52:59.911Z,12.17
2017-08-11T02:55:27.463Z,11.63
2017-08-11T02:57:55.013Z,11.80
2017-08-11T03:00:22.521Z,11.37
2017-08-11T03:02:49.980Z,12.20
2017-08-11T03:05:17.484Z,14.00
2017-08-11T03:07:45.077Z,14.03
2017-08-11T03:10:12.551Z,11.67
2017-08-11T03:12:39.995Z,12.47
2017-08-11T03:15:07.469Z,12.27
2017-08-11T03:17:34.963Z,12.83
2017-08-11T03:20:02.539Z,13.23
2017-08-11T03:22:30.001Z,13.13
2017-08-11T03:24:57.457Z,11.93
2017-08-11T03:27:24.946Z,11.40
2017-08-11T03:29:52.405Z,13.47
2017-08-11T03:32:19.869Z,12.50
2017-08-11T03:34:47.395Z,13.73
2017-08-11T03:37:14.983Z,14.33
2017-08-11T03:39:42.437Z,13.60
2017-08-11T03:42:09.934Z,13.73
2017-08-11T03:44:37.401Z,13.20
2017-08-11T03:47:04.871Z,14.97
2017-08-11T03:49:32.436Z,14.57
2017-08-11T03:51:59.971Z,14.37
2017-08-11T03:54:27.406Z,13.47
2017-08-11T03:56:54.861Z,15.40
2017-08-11T03:59:22.443Z,16.83
2017-08-11T04:01:49.903Z,17.73
2017-08-11T04:04:17.445Z,23.67
2017-08-11T04:06:44.885Z,19.07
2017-08-11T04:09:12.355Z,17.67
2017-08-11T04:11:39.816Z,16.20
2017-08-11T04:14:07.297Z,18.20
2017-08-11T04:16:34.831Z,17.60
2017-08-11T04:19:02.312Z,16.87
2017-08-11T04:21:29.859Z,18.90
2017-08-11T04:23:57.331Z,17.63
2017-08-11T04:26:24.885Z,17.30
2017-08-11T04:28:52.364Z,17.10
2017-08-11T04:31:19.819Z,17.37
2017-08-11T04:33:47.300Z,16.33
2017-08-11T04:36:14.807Z,17.30
2017-08-11T04:38:42.299Z,17.30
2017-08-11T04:41:09.757Z,17.87
2017-08-11T04:43:37.266Z,17.80
2017-08-11T04:46:04.743Z,18.10
2017-08-11T04:48:32.493Z,17.73
2017-08-11T04:51:00.059Z,18.50
2017-08-11T04:53:27.523Z,17.83
2017-08-11T04:55:55.072Z,16.60
2017-08-11T04:58:22.535Z,17.80
2017-08-11T05:00:50.291Z,17.20
2017-08-11T05:03:17.748Z,17.40
2017-08-11T05:05:45.320Z,18.93
2017-08-11T05:08:12.776Z,16.80
2017-08-11T05:10:40.324Z,20.30
2017-08-11T05:13:07.787Z,17.83
2017-08-11T05:15:35.259Z,18.47
2017-08-11T05:18:02.785Z,16.80
2017-08-11T05:20:30.229Z,18.20
2017-08-11T05:22:57.809Z,19.50
2017-08-11T05:25:25.266Z,18.37
2017-08-11T05:27:52.835Z,16.67
2017-08-11T05:30:20.365Z,18.77
2017-08-11T05:32:47.840Z,20.90
2017-08-11T05:35:15.297Z,19.40
2017-08-11T05:37:42.789Z,19.80
2017-08-11T05:40:10.251Z,19.80
2017-08-11T05:42:37.735Z,19.07
2017-08-11T05:45:05.224Z,20.70
2017-08-11T05:47:32.690Z,20.10
2017-08-11T05:50:00.151Z,19.83
2017-08-11T05:52:27.589Z,19.37
2017-08-11T05:54:55.059Z,20.63
2017-08-11T05:57:22.524Z,17.33
2017-08-11T05:59:50.069Z,17.93
2017-08-11T06:02:17.521Z,17.80
2017-08-11T06:04:44.999Z,15.77
2017-08-11T06:07:12.525Z,17.40
2017-08-11T06:09:40.103Z,16.50
2017-08-11T06:12:07.671Z,17.13
2017-08-11T06:14:35.213Z,15.07
2017-08-11T06:17:02.653Z,14.03
2017-08-11T06:19:30.132Z,16.37
2017-08-11T06:21:57.595Z,15.77
2017-08-11T06:24:25.095Z,14.40
2017-08-11T06:26:52.597Z,16.40
2017-08-11T06:29:20.056Z,17.50
2017-08-11T06:31:47.529Z,14.60
2017-08-11T06:34:15.045Z,16.57
2017-08-11T06:36:42.515Z,13.50
2017-08-11T06:39:10.007Z,19.87
2017-08-11T06:41:37.540Z,14.50
2017-08-11T06:44:05.023Z,15.67
2017-08-11T06:46:32.502Z,16.70
2017-08-11T06:49:00.013Z,16.17
2017-08-11T06:51:27.571Z,8.40
2017-08-11T06:53:55.012Z,12.70
2017-08-11T06:56:22.484Z,15.17
2017-08-11T06:58:49.940Z,16.07
2017-08-11T07:01:17.431Z,15.83
2017-08-11T07:03:44.957Z,17.10
2017-08-11T07:06:12.397Z,18.13
2017-08-11T07:08:39.892Z,15.80
2017-08-11T07:11:07.341Z,17.13
2017-08-11T07:13:34.938Z,17.13
2017-08-11T07:16:02.448Z,19.23
2017-08-11T07:18:30.152Z,17.70
2017-08-11T07:20:57.616Z,18.57
2017-08-11T07:23:25.119Z,19.87
2017-08-11T07:25:52.592Z,19.30
2017-08-11T07:28:20.070Z,22.00
2017-08-11T07:30:47.599Z,20.97
2017-08-11T07:33:15.204Z,23.27
2017-08-11T07:35:42.664Z,24.90
2017-08-11T07:38:10.132Z,29.17
2017-08-11T07:40:37.608Z,28.00
2017-08-11T07:43:05.061Z,30.47
2017-08-11T07:45:32.690Z,33.40
2017-08-11T07:48:00.148Z,30.73
2017-08-11T07:50:27.656Z,33.10
2017-08-11T07:52:55.206Z,36.37
2017-08-11T07:55:22.772Z,39.43
2017-08-11T07:57:50.227Z,37.70
2017-08-11T08:00:17.786Z,37.90
2017-08-11T08:02:45.260Z,35.63
2017-08-11T08:05:12.803Z,37.43
2017-08-11T08:07:40.361Z,36.20
2017-08-11T08:10:07.923Z,39.90
2017-08-11T08:12:35.487Z,36.40
2017-08-11T08:15:02.930Z,37.57
2017-08-11T08:17:30.404Z,39.20
2017-08-11T08:19:57.880Z,37.67
2017-08-11T08:22:25.405Z,37.30
2017-08-11T08:24:52.877Z,37.40
2017-08-11T08:27:20.348Z,35.03
2017-08-11T08:29:47.803Z,38.43
2017-08-11T08:32:15.336Z,37.90
2017-08-11T08:34:42.815Z,37.03
2017-08-11T08:37:10.349Z,38.77
2017-08-11T08:39:37.806Z,36.00
2017-08-11T08:42:05.283Z,36.70
2017-08-11T08:44:32.737Z,37.60
2017-08-11T08:47:00.222Z,37.50
2017-08-11T08:49:27.733Z,28.90
2017-08-11T08:51:55.193Z,33.43
2017-08-11T08:54:22.668Z,32.13
2017-08-11T08:56:50.135Z,29.17
2017-08-11T08:59:17.674Z,26.80
2017-08-11T09:01:45.129Z,27.60
2017-08-11T09:04:12.678Z,26.03
2017-08-11T09:06:40.304Z,26.60
2017-08-11T09:09:07.795Z,28.00
2017-08-11T09:11:35.273Z,26.90
2017-08-11T09:14:02.811Z,22.90
2017-08-11T09:16:30.272Z,22.90
2017-08-11T09:18:57.749Z,23.40
2017-08-11T09:21:25.203Z,21.07
2017-08-11T09:23:52.739Z,20.53
2017-08-11T09:26:32.061Z,19.00
2017-08-11T09:29:11.332Z,15.90
2017-08-11T09:31:50.847Z,16.67
2017-08-11T09:34:30.180Z,12.43
2017-08-11T09:36:57.636Z,12.50
2017-08-11T09:39:25.109Z,12.53
2017-08-11T09:41:52.563Z,10.30
2017-08-11T09:44:20.023Z,9.10
2017-08-11T09:46:47.571Z,9.20
2017-08-11T09:49:15.130Z,9.77
2017-08-11T09:51:42.668Z,8.47
2017-08-11T09:54:10.228Z,9.00
2017-08-11T09:56:37.905Z,7.10
2017-08-11T09:59:05.461Z,5.63
2017-08-11T10:01:32.943Z,5.90
2017-08-11T10:04:00.426Z,4.77
2017-08-11T10:06:27.882Z,4.40
2017-08-11T10:08:55.395Z,4.97
2017-08-11T10:11:22.858Z,3.93
2017-08-11T10:13:50.405Z,3.40
2017-08-11T10:16:17.945Z,3.77
2017-08-11T10:18:45.420Z,2.97
2017-08-11T10:21:12.971Z,2.97
2017-08-11T10:23:40.430Z,3.07
2017-08-11T10:26:07.996Z,3.40
2017-08-11T10:28:35.558Z,2.33
2017-08-11T10:31:03.112Z,3.07
2017-08-11T10:33:30.583Z,2.60
2017-08-11T10:35:58.090Z,3.30
2017-08-11T10:38:25.579Z,2.33
2017-08-11T10:40:53.034Z,3.00
2017-08-11T10:43:20.484Z,2.83
2017-08-11T10:45:48.312Z,3.23
2017-08-11T10:48:15.805Z,2.93
2017-08-11T10:50:43.235Z,3.23
2017-08-11T10:53:10.711Z,2.83
2017-08-11T10:55:38.177Z,2.97
2017-08-11T10:58:05.643Z,3.73
2017-08-11T11:00:33.154Z,2.93
2017-08-11T11:03:00.643Z,2.00
2017-08-11T11:05:28.116Z,2.70
2017-08-11T11:07:55.807Z,2.53
2017-08-11T11:10:23.389Z,2.47
2017-08-11T11:12:50.895Z,2.43
2017-08-11T11:15:18.451Z,2.20
2017-08-11T11:17:45.921Z,1.93
2017-08-11T11:20:13.469Z,2.70
2017-08-11T11:22:40.901Z,1.90
2017-08-11T11:25:08.386Z,1.73
2017-08-11T11:27:35.835Z,2.23
2017-08-11T11:30:03.382Z,1.73
2017-08-11T11:32:30.820Z,1.90
2017-08-11T11:34:58.306Z,1.60
2017-08-11T11:37:25.767Z,2.40
2017-08-11T11:39:53.223Z,1.97
2017-08-11T11:42:20.662Z,1.50
2017-08-11T11:44:48.238Z,2.27
2017-08-11T11:47:15.797Z,1.60
2017-08-11T11:49:43.351Z,1.77
2017-08-11T11:52:10.820Z,1.80
2017-08-11T11:54:38.288Z,1.73
2017-08-11T11:57:05.827Z,1.60
2017-08-11T11:59:33.271Z,1.77
2017-08-11T12:02:00.857Z,1.40
2017-08-11T12:04:28.295Z,1.40
2017-08-11T12:06:55.759Z,1.57
2017-08-11T12:09:23.319Z,1.60
2017-08-11T12:11:50.873Z,1.37
2017-08-11T12:14:19.144Z,1.77
2017-08-11T12:16:46.626Z,2.20
2017-08-11T12:19:14.164Z,2.53
2017-08-11T12:21:41.673Z,2.50
2017-08-11T12:24:09.337Z,2.87
2017-08-11T12:26:36.801Z,3.60
2017-08-11T12:29:04.297Z,3.00
2017-08-11T12:31:31.764Z,3.00
2017-08-11T12:33:59.311Z,3.20
2017-08-11T12:36:26.868Z,2.90
2017-08-11T12:38:54.309Z,3.50
2017-08-11T12:41:21.869Z,3.00
2017-08-11T12:43:49.310Z,3.97
2017-08-11T12:46:16.760Z,3.43
2017-08-11T12:48:44.255Z,4.20
2017-08-11T12:51:11.698Z,4.30
2017-08-11T12:53:39.681Z,4.33
2017-08-11T12:56:07.371Z,5.37
2017-08-11T12:58:34.859Z,4.77
2017-08-11T13:01:02.362Z,7.53
2017-08-11T13:03:29.832Z,8.80
2017-08-11T13:05:58.237Z,7.97
2017-08-11T13:08:25.753Z,10.13
2017-08-11T13:10:53.289Z,10.90
2017-08-11T13:13:20.818Z,10.23
2017-08-11T13:15:48.324Z,11.57
2017-08-11T13:18:16.187Z,12.00
2017-08-11T13:20:43.748Z,11.93
2017-08-11T13:23:11.240Z,11.00
2017-08-11T13:25:38.766Z,10.87
2017-08-11T13:28:06.209Z,10.37
2017-08-11T13:30:33.893Z,9.80
2017-08-11T13:33:01.341Z,11.73
2017-08-11T13:35:28.811Z,10.47
2017-08-11T13:37:56.260Z,9.80
2017-08-11T13:40:23.731Z,10.23
2017-08-11T13:42:52.031Z,11.00
2017-08-11T13:45:19.508Z,10.80
2017-08-11T13:47:47.000Z,10.37
2017-08-11T13:50:14.461Z,9.83
2017-08-11T13:52:41.911Z,12.10
2017-08-11T13:55:09.706Z,10.90
2017-08-11T13:57:37.235Z,12.07
2017-08-11T14:00:04.710Z,11.13
2017-08-11T14:02:32.249Z,10.50
2017-08-11T14:04:59.713Z,11.97
2017-08-11T14:07:27.149Z,11.40
2017-08-11T14:09:54.600Z,11.70
2017-08-11T14:12:22.112Z,12.40
2017-08-11T14:14:50.824Z,11.67
2017-08-11T14:17:18.316Z,12.40
2017-08-11T14:19:45.762Z,12.00
2017-08-11T14:22:13.325Z,12.50
2017-08-11T14:24:46.376Z,12.80
2017-08-11T14:27:13.888Z,12.83
2017-08-11T14:29:41.437Z,11.97
2017-08-11T14:32:08.919Z,13.27
2017-08-11T14:34:36.373Z,13.17
2017-08-11T14:37:03.853Z,13.57
2017-08-11T14:39:31.378Z,15.80
2017-08-11T14:41:58.900Z,14.97
2017-08-11T14:44:26.485Z,16.13
2017-08-11T14:46:53.941Z,14.67
2017-08-11T14:49:21.406Z,15.50
2017-08-11T14:51:48.937Z,16.87
2017-08-11T14:54:16.513Z,15.60
2017-08-11T14:56:43.958Z,16.60
2017-08-11T14:59:11.439Z,16.00
2017-08-11T15:01:38.984Z,16.77
2017-08-11T15:04:06.463Z,16.70
2017-08-11T15:06:33.919Z,16.90
2017-08-11T15:09:01.446Z,19.57
2017-08-11T15:11:28.895Z,19.03
2017-08-11T15:13:56.357Z,21.03
2017-08-11T15:16:23.832Z,21.90
2017-08-11T15:18:51.388Z,22.30
2017-08-11T15:21:18.883Z,19.37
2017-08-11T15:23:46.349Z,19.93
2017-08-11T15:26:13.911Z,21.73
2017-08-11T15:28:41.367Z,21.80
2017-08-11T15:31:08.875Z,21.63
2017-08-11T15:33:36.339Z,22.67
2017-08-11T15:36:03.848Z,18.60
2017-08-11T15:38:31.339Z,22.60
2017-08-11T15:40:58.819Z,21.77
2017-08-11T15:43:26.345Z,25.10
2017-08-11T15:45:53.919Z,24.53
2017-08-11T15:48:21.374Z,24.20
2017-08-11T15:50:48.841Z,24.53
2017-08-11T15:53:16.392Z,25.70
2017-08-11T15:55:43.948Z,22.93
2017-08-11T15:58:11.405Z,26.87
2017-08-11T16:00:39.368Z,27.87
2017-08-11T16:03:06.824Z,29.23
2017-08-11T16:05:34.281Z,27.80
2017-08-11T16:08:01.795Z,28.37
2017-08-11T16:10:29.251Z,29.80
2017-08-11T16:12:57.127Z,29.40
2017-08-11T16:15:24.584Z,27.53
2017-08-11T16:17:52.049Z,28.60
2017-08-11T16:20:19.500Z,27.50
2017-08-11T16:22:46.974Z,26.43
2017-08-11T16:25:14.431Z,27.00
2017-08-11T16:27:41.908Z,26.03
2017-08-11T16:30:09.361Z,26.10
2017-08-11T16:32:36.843Z,26.20
2017-08-11T16:35:04.290Z,27.10
2017-08-11T16:37:31.851Z,25.20
2017-08-11T16:39:59.303Z,26.27
2017-08-11T16:42:26.799Z,25.83
2017-08-11T16:44:54.288Z,28.30
2017-08-11T16:47:21.746Z,23.60
2017-08-11T16:49:49.214Z,25.03
2017-08-11T16:52:16.777Z,24.43
2017-08-11T16:54:44.271Z,26.57
2017-08-11T16:57:11.796Z,25.90
2017-08-11T16:59:39.288Z,27.80
2017-08-11T17:02:06.744Z,27.97
2017-08-11T17:04:34.216Z,26.37
2017-08-11T17:07:01.669Z,25.97
2017-08-11T17:09:29.139Z,27.77
2017-08-11T17:11:56.600Z,23.27
2017-08-11T17:14:24.085Z,24.43
2017-08-11T17:16:51.546Z,24.70
2017-08-11T17:19:19.023Z,25.77
2017-08-11T17:21:46.550Z,22.10
2017-08-11T17:24:14.020Z,21.40
2017-08-11T17:26:41.483Z,21.60
2017-08-11T17:29:08.967Z,21.23
2017-08-11T17:31:36.423Z,21.03
2017-08-11T17:34:03.947Z,20.93
2017-08-11T17:36:31.415Z,21.17
2017-08-11T17:38:58.862Z,20.90
2017-08-11T17:41:26.417Z,20.83
2017-08-11T17:43:53.873Z,21.77
2017-08-11T17:46:21.343Z,21.83
2017-08-11T17:48:48.878Z,21.17
2017-08-11T17:51:16.448Z,20.07
2017-08-11T17:53:43.905Z,21.20
2017-08-11T17:56:11.392Z,18.87
2017-08-11T17:58:38.955Z,15.93
2017-08-11T18:01:06.480Z,17.17
2017-08-11T18:03:33.925Z,17.07
2017-08-11T18:06:01.500Z,14.60
2017-08-11T18:08:29.052Z,14.60
2017-08-11T18:10:56.552Z,12.53
2017-08-11T18:13:24.066Z,14.07
2017-08-11T18:15:51.551Z,15.10
2017-08-11T18:18:19.084Z,16.67
2017-08-11T18:20:46.540Z,13.90
2017-08-11T18:23:14.036Z,14.73
2017-08-11T18:25:41.495Z,15.53
2017-08-11T18:28:08.959Z,17.53
2017-08-11T18:30:36.397Z,18.67
2017-08-11T18:33:03.872Z,16.67
2017-08-11T18:35:31.331Z,15.87
2017-08-11T18:37:58.836Z,16.43
2017-08-11T18:40:26.282Z,17.23
2017-08-11T18:42:53.788Z,17.73
2017-08-11T18:45:21.292Z,17.93
2017-08-11T18:47:48.749Z,17.10
2017-08-11T18:50:16.200Z,17.10
2017-08-11T18:52:43.661Z,18.00
2017-08-11T18:55:11.147Z,16.83
2017-08-11T18:57:38.623Z,17.40
2017-08-11T19:00:06.085Z,19.80
2017-08-11T19:02:33.658Z,19.30
2017-08-11T19:05:01.132Z,21.20
2017-08-11T19:07:28.602Z,19.20
2017-08-11T19:09:56.132Z,20.80
2017-08-11T19:12:23.585Z,21.83
2017-08-11T19:14:51.092Z,18.90
2017-08-11T19:17:18.559Z,22.23
2017-08-11T19:19:46.042Z,20.63
2017-08-11T19:22:13.563Z,21.03
2017-08-11T19:24:41.028Z,22.87
2017-08-11T19:27:08.480Z,22.50
2017-08-11T19:29:36.023Z,21.23
2017-08-11T19:32:03.457Z,20.97
2017-08-11T19:34:30.949Z,23.70
2017-08-11T19:36:58.424Z,23.10
2017-08-11T19:39:25.875Z,23.30
2017-08-11T19:41:53.417Z,26.33
2017-08-11T19:44:20.876Z,24.37
2017-08-11T19:46:48.366Z,24.17
2017-08-11T19:49:15.824Z,26.03
2017-08-11T19:51:43.285Z,23.60
2017-08-11T19:54:10.739Z,25.13
2017-08-11T19:56:38.261Z,25.60
2017-08-11T19:59:05.719Z,25.67
2017-08-11T20:01:33.275Z,25.40
2017-08-11T20:04:00.726Z,23.80
2017-08-11T20:06:28.200Z,23.30
2017-08-11T20:08:55.660Z,24.77
2017-08-11T20:11:23.354Z,20.83
2017-08-11T20:13:50.853Z,20.07
2017-08-11T20:16:18.321Z,19.83
2017-08-11T20:18:45.815Z,20.40
2017-08-11T20:21:13.390Z,21.90
2017-08-11T20:23:40.985Z,20.87
2017-08-11T20:26:08.429Z,20.10
2017-08-11T20:28:35.898Z,19.00
2017-08-11T20:31:03.356Z,18.03
2017-08-11T20:33:30.949Z,16.07
2017-08-11T20:35:58.578Z,18.00
2017-08-11T20:38:26.097Z,16.77
2017-08-11T20:40:53.612Z,18.17
2017-08-11T20:43:21.163Z,15.70
2017-08-11T20:45:48.610Z,16.50
2017-08-11T20:48:16.415Z,15.27
2017-08-11T20:50:43.939Z,14.20
2017-08-11T20:53:11.472Z,14.90
2017-08-11T20:55:38.946Z,15.07
2017-08-11T20:58:06.403Z,14.70
2017-08-11T21:00:34.131Z,13.80
2017-08-11T21:03:01.584Z,13.73
2017-08-11T21:05:29.063Z,14.00
2017-08-11T21:07:56.515Z,13.00
2017-08-11T21:10:23.999Z,13.70
2017-08-11T21:12:51.626Z,13.23
2017-08-11T21:15:19.113Z,13.47
2017-08-11T21:17:46.676Z,13.97
2017-08-11T21:20:14.155Z,16.13
2017-08-11T21:22:41.597Z,13.53
2017-08-11T21:25:09.067Z,14.53
2017-08-11T21:27:36.513Z,15.27
2017-08-11T21:30:03.992Z,15.53
2017-08-11T21:32:31.520Z,16.50
2017-08-11T21:34:59.079Z,15.47
2017-08-11T21:37:26.555Z,17.10
2017-08-11T21:39:54.037Z,14.60
2017-08-11T21:42:21.601Z,17.03
2017-08-11T21:44:49.067Z,15.90
2017-08-11T21:47:16.575Z,17.90
2017-08-11T21:49:44.039Z,17.20
2017-08-11T21:52:11.519Z,15.90
2017-08-11T21:54:38.995Z,16.00
2017-08-11T21:57:06.477Z,17.67
2017-08-11T21:59:33.932Z,16.87
2017-08-11T22:02:01.416Z,18.03
2017-08-11T22:04:28.857Z,16.90
2017-08-11T22:06:56.427Z,19.73
2017-08-11T22:09:23.887Z,19.20
2017-08-11T22:11:51.367Z,20.53
2017-08-11T22:14:18.880Z,18.20
2017-08-11T22:16:46.348Z,19.00
2017-08-11T22:19:13.910Z,19.90
2017-08-11T22:21:41.465Z,20.27
2017-08-11T22:24:08.934Z,22.33
2017-08-11T22:26:36.387Z,20.33
2017-08-11T22:29:04.103Z,20.23
2017-08-11T22:31:31.580Z,18.60
2017-08-11T22:33:59.160Z,20.00
2017-08-11T22:36:26.715Z,20.10
2017-08-11T22:38:54.229Z,19.67
2017-08-11T22:41:22.149Z,18.03
2017-08-11T22:43:49.699Z,19.70
2017-08-11T22:46:17.167Z,17.30
2017-08-11T22:48:44.653Z,17.00
2017-08-11T22:51:12.103Z,17.27
2017-08-11T22:53:39.559Z,17.73
2017-08-11T22:56:07.025Z,19.43
2017-08-11T22:58:34.480Z,22.07
2017-08-11T23:01:01.955Z,21.03
2017-08-11T23:03:29.455Z,17.80
2017-08-11T23:05:57.012Z,21.40
2017-08-11T23:08:24.491Z,20.47
2017-08-11T23:10:52.033Z,21.27
2017-08-11T23:13:19.491Z,21.80
2017-08-11T23:15:46.957Z,18.80
2017-08-11T23:18:14.500Z,20.53
2017-08-11T23:20:41.978Z,19.43
2017-08-11T23:23:09.527Z,21.57
2017-08-11T23:25:37.085Z,21.00
2017-08-11T23:28:04.538Z,19.80
2017-08-11T23:30:32.397Z,21.37
2017-08-11T23:32:59.955Z,20.27
2017-08-11T23:35:27.435Z,18.43
2017-08-11T23:37:54.971Z,19.80
2017-08-11T23:40:22.413Z,19.83
2017-08-11T23:42:49.951Z,19.80
2017-08-11T23:45:17.397Z,22.17
2017-08-11T23:47:44.891Z,20.67
2017-08-11T23:50:12.359Z,18.87
2017-08-11T23:52:39.913Z,19.90
2017-08-11T23:55:07.389Z,19.27
2017-08-11T23:57:34.863Z,19.53
